sensor_id;sensor_type;location;lat;lon;timestamp;P1;durP1;ratioP1;P2;durP2;ratioP2
76576;SDS011;65441;44.748;37.600;2023-07-13T00:00:30;5.47;;;2.45;;
76576;SDS011;65441;44.748;37.600;2023-07-13T00:02:59;5.80;;;2.38;;
76576;SDS011;65441;44.748;37.600;2023-07-13T00:05:27;6.70;;;2.90;;
76576;SDS011;65441;44.748;37.600;2023-07-13T00:07:55;5.72;;;2.28;;
76576;SDS011;65441;44.748;37.600;2023-07-13T00:10:23;5.95;;;2.50;;
76576;SDS011;65441;44.748;37.600;2023-07-13T00:12:53;5.63;;;2.30;;
76576;SDS011;65441;44.748;37.600;2023-07-13T00:15:22;4.50;;;2.00;;
76576;SDS011;65441;44.748;37.600;2023-07-13T00:17:53;6.45;;;2.38;;
76576;SDS011;65441;44.748;37.600;2023-07-13T00:20:22;6.63;;;2.75;;
76576;SDS011;65441;44.748;37.600;2023-07-13T00:22:52;7.60;;;2.20;;
76576;SDS011;65441;44.748;37.600;2023-07-13T00:25:20;5.38;;;2.38;;
76576;SDS011;65441;44.748;37.600;2023-07-13T00:27:50;6.13;;;2.47;;
76576;SDS011;65441;44.748;37.600;2023-07-13T00:30:20;7.22;;;2.67;;
76576;SDS011;65441;44.748;37.600;2023-07-13T00:32:48;5.22;;;2.38;;
76576;SDS011;65441;44.748;37.600;2023-07-13T00:35:17;5.80;;;2.60;;
76576;SDS011;65441;44.748;37.600;2023-07-13T00:37:45;7.13;;;2.45;;
76576;SDS011;65441;44.748;37.600;2023-07-13T00:40:13;6.57;;;2.38;;
76576;SDS011;65441;44.748;37.600;2023-07-13T00:42:44;5.88;;;2.50;;
76576;SDS011;65441;44.748;37.600;2023-07-13T00:48:21;5.95;;;2.45;;
76576;SDS011;65441;44.748;37.600;2023-07-13T00:50:53;6.80;;;2.90;;
76576;SDS011;65441;44.748;37.600;2023-07-13T00:53:26;7.00;;;2.70;;
76576;SDS011;65441;44.748;37.600;2023-07-13T00:55:56;7.57;;;2.70;;
76576;SDS011;65441;44.748;37.600;2023-07-13T00:58:25;5.90;;;2.53;;
76576;SDS011;65441;44.748;37.600;2023-07-13T01:00:57;7.82;;;2.90;;
76576;SDS011;65441;44.748;37.600;2023-07-13T01:03:27;5.68;;;2.60;;
76576;SDS011;65441;44.748;37.600;2023-07-13T01:05:55;6.10;;;3.00;;
76576;SDS011;65441;44.748;37.600;2023-07-13T01:08:23;5.85;;;2.85;;
76576;SDS011;65441;44.748;37.600;2023-07-13T01:10:52;7.88;;;2.75;;
76576;SDS011;65441;44.748;37.600;2023-07-13T01:13:21;8.93;;;2.80;;
76576;SDS011;65441;44.748;37.600;2023-07-13T01:15:50;7.10;;;2.50;;
76576;SDS011;65441;44.748;37.600;2023-07-13T01:18:23;5.55;;;2.85;;
76576;SDS011;65441;44.748;37.600;2023-07-13T01:20:56;7.30;;;2.70;;
76576;SDS011;65441;44.748;37.600;2023-07-13T01:23:26;8.68;;;3.00;;
76576;SDS011;65441;44.748;37.600;2023-07-13T01:25:55;7.82;;;2.90;;
76576;SDS011;65441;44.748;37.600;2023-07-13T01:28:24;7.72;;;3.10;;
76576;SDS011;65441;44.748;37.600;2023-07-13T01:30:54;6.75;;;2.70;;
76576;SDS011;65441;44.748;37.600;2023-07-13T01:33:23;7.68;;;2.95;;
76576;SDS011;65441;44.748;37.600;2023-07-13T01:35:52;5.72;;;2.80;;
76576;SDS011;65441;44.748;37.600;2023-07-13T01:38:22;8.68;;;2.92;;
76576;SDS011;65441;44.748;37.600;2023-07-13T01:40:51;6.45;;;3.00;;
76576;SDS011;65441;44.748;37.600;2023-07-13T01:43:19;5.18;;;2.67;;
76576;SDS011;65441;44.748;37.600;2023-07-13T01:45:48;5.80;;;2.83;;
76576;SDS011;65441;44.748;37.600;2023-07-13T01:48:16;6.82;;;2.90;;
76576;SDS011;65441;44.748;37.600;2023-07-13T01:50:44;6.38;;;2.97;;
76576;SDS011;65441;44.748;37.600;2023-07-13T01:53:12;6.03;;;2.63;;
76576;SDS011;65441;44.748;37.600;2023-07-13T01:55:42;6.30;;;2.78;;
76576;SDS011;65441;44.748;37.600;2023-07-13T01:58:12;6.43;;;2.95;;
76576;SDS011;65441;44.748;37.600;2023-07-13T02:00:40;5.97;;;2.72;;
76576;SDS011;65441;44.748;37.600;2023-07-13T02:03:08;6.38;;;2.60;;
76576;SDS011;65441;44.748;37.600;2023-07-13T02:05:36;5.60;;;2.88;;
76576;SDS011;65441;44.748;37.600;2023-07-13T02:08:04;5.68;;;2.90;;
76576;SDS011;65441;44.748;37.600;2023-07-13T02:10:32;10.30;;;2.83;;
76576;SDS011;65441;44.748;37.600;2023-07-13T02:13:01;6.95;;;2.80;;
76576;SDS011;65441;44.748;37.600;2023-07-13T02:15:31;6.20;;;3.10;;
76576;SDS011;65441;44.748;37.600;2023-07-13T02:18:00;8.23;;;2.95;;
76576;SDS011;65441;44.748;37.600;2023-07-13T02:20:29;5.45;;;2.90;;
76576;SDS011;65441;44.748;37.600;2023-07-13T02:22:57;7.90;;;3.00;;
76576;SDS011;65441;44.748;37.600;2023-07-13T02:25:25;8.38;;;3.75;;
76576;SDS011;65441;44.748;37.600;2023-07-13T02:27:53;6.50;;;3.08;;
76576;SDS011;65441;44.748;37.600;2023-07-13T02:30:23;7.03;;;3.80;;
76576;SDS011;65441;44.748;37.600;2023-07-13T02:32:54;8.52;;;3.35;;
76576;SDS011;65441;44.748;37.600;2023-07-13T02:35:22;5.97;;;2.90;;
76576;SDS011;65441;44.748;37.600;2023-07-13T02:37:50;8.55;;;3.15;;
76576;SDS011;65441;44.748;37.600;2023-07-13T02:40:18;6.47;;;3.35;;
76576;SDS011;65441;44.748;37.600;2023-07-13T02:42:46;8.55;;;3.63;;
76576;SDS011;65441;44.748;37.600;2023-07-13T02:45:14;7.40;;;3.20;;
76576;SDS011;65441;44.748;37.600;2023-07-13T02:47:44;8.18;;;3.35;;
76576;SDS011;65441;44.748;37.600;2023-07-13T02:50:12;7.25;;;2.95;;
76576;SDS011;65441;44.748;37.600;2023-07-13T02:52:40;6.32;;;3.65;;
76576;SDS011;65441;44.748;37.600;2023-07-13T02:55:09;7.47;;;3.40;;
76576;SDS011;65441;44.748;37.600;2023-07-13T02:57:37;11.50;;;3.83;;
76576;SDS011;65441;44.748;37.600;2023-07-13T03:00:05;8.85;;;3.75;;
76576;SDS011;65441;44.748;37.600;2023-07-13T03:02:36;11.73;;;3.90;;
76576;SDS011;65441;44.748;37.600;2023-07-13T03:05:07;10.38;;;3.60;;
76576;SDS011;65441;44.748;37.600;2023-07-13T03:07:38;11.05;;;3.50;;
76576;SDS011;65441;44.748;37.600;2023-07-13T03:10:09;8.50;;;3.55;;
76576;SDS011;65441;44.748;37.600;2023-07-13T03:12:44;6.53;;;3.28;;
76576;SDS011;65441;44.748;37.600;2023-07-13T03:15:20;10.20;;;3.80;;
76576;SDS011;65441;44.748;37.600;2023-07-13T03:17:51;8.18;;;3.22;;
76576;SDS011;65441;44.748;37.600;2023-07-13T03:20:22;10.02;;;3.70;;
76576;SDS011;65441;44.748;37.600;2023-07-13T03:22:50;7.03;;;3.13;;
76576;SDS011;65441;44.748;37.600;2023-07-13T03:25:19;9.80;;;3.25;;
76576;SDS011;65441;44.748;37.600;2023-07-13T03:27:49;7.93;;;3.55;;
76576;SDS011;65441;44.748;37.600;2023-07-13T03:30:17;7.00;;;3.95;;
76576;SDS011;65441;44.748;37.600;2023-07-13T03:32:45;7.90;;;3.33;;
76576;SDS011;65441;44.748;37.600;2023-07-13T03:35:13;9.02;;;4.03;;
76576;SDS011;65441;44.748;37.600;2023-07-13T03:37:43;8.60;;;3.28;;
76576;SDS011;65441;44.748;37.600;2023-07-13T03:40:17;10.27;;;4.03;;
76576;SDS011;65441;44.748;37.600;2023-07-13T03:42:46;10.80;;;4.13;;
76576;SDS011;65441;44.748;37.600;2023-07-13T03:45:16;8.63;;;4.47;;
76576;SDS011;65441;44.748;37.600;2023-07-13T03:47:46;10.43;;;4.40;;
76576;SDS011;65441;44.748;37.600;2023-07-13T03:50:18;9.30;;;4.40;;
76576;SDS011;65441;44.748;37.600;2023-07-13T03:52:48;10.60;;;4.32;;
76576;SDS011;65441;44.748;37.600;2023-07-13T03:55:17;10.05;;;4.32;;
76576;SDS011;65441;44.748;37.600;2023-07-13T03:57:45;11.63;;;4.18;;
76576;SDS011;65441;44.748;37.600;2023-07-13T04:00:14;6.70;;;4.20;;
76576;SDS011;65441;44.748;37.600;2023-07-13T04:02:43;7.80;;;4.35;;
76576;SDS011;65441;44.748;37.600;2023-07-13T04:05:13;12.05;;;4.60;;
76576;SDS011;65441;44.748;37.600;2023-07-13T04:07:41;7.30;;;4.18;;
76576;SDS011;65441;44.748;37.600;2023-07-13T04:10:11;7.93;;;4.00;;
76576;SDS011;65441;44.748;37.600;2023-07-13T04:12:39;9.52;;;4.28;;
76576;SDS011;65441;44.748;37.600;2023-07-13T04:15:08;7.50;;;3.90;;
76576;SDS011;65441;44.748;37.600;2023-07-13T04:17:36;10.55;;;5.18;;
76576;SDS011;65441;44.748;37.600;2023-07-13T04:20:05;9.85;;;4.20;;
76576;SDS011;65441;44.748;37.600;2023-07-13T04:22:34;7.63;;;3.95;;
76576;SDS011;65441;44.748;37.600;2023-07-13T04:25:02;8.38;;;4.10;;
76576;SDS011;65441;44.748;37.600;2023-07-13T04:27:32;8.02;;;3.90;;
76576;SDS011;65441;44.748;37.600;2023-07-13T04:30:00;7.05;;;3.97;;
76576;SDS011;65441;44.748;37.600;2023-07-13T04:32:28;8.55;;;3.95;;
76576;SDS011;65441;44.748;37.600;2023-07-13T04:34:58;7.75;;;4.57;;
76576;SDS011;65441;44.748;37.600;2023-07-13T04:37:26;8.38;;;3.90;;
76576;SDS011;65441;44.748;37.600;2023-07-13T04:39:54;8.43;;;3.90;;
76576;SDS011;65441;44.748;37.600;2023-07-13T04:42:23;9.52;;;4.40;;
76576;SDS011;65441;44.748;37.600;2023-07-13T04:44:52;9.00;;;4.40;;
76576;SDS011;65441;44.748;37.600;2023-07-13T04:47:21;8.63;;;3.55;;
76576;SDS011;65441;44.748;37.600;2023-07-13T04:49:49;8.10;;;3.97;;
76576;SDS011;65441;44.748;37.600;2023-07-13T04:52:17;6.97;;;3.83;;
76576;SDS011;65441;44.748;37.600;2023-07-13T04:54:46;6.63;;;3.47;;
76576;SDS011;65441;44.748;37.600;2023-07-13T04:57:14;9.45;;;4.18;;
76576;SDS011;65441;44.748;37.600;2023-07-13T04:59:42;7.93;;;3.97;;
76576;SDS011;65441;44.748;37.600;2023-07-13T05:02:11;7.85;;;3.80;;
76576;SDS011;65441;44.748;37.600;2023-07-13T05:04:39;11.15;;;4.50;;
76576;SDS011;65441;44.748;37.600;2023-07-13T05:07:13;8.95;;;4.70;;
76576;SDS011;65441;44.748;37.600;2023-07-13T05:09:42;9.05;;;4.72;;
76576;SDS011;65441;44.748;37.600;2023-07-13T05:12:10;8.13;;;3.72;;
76576;SDS011;65441;44.748;37.600;2023-07-13T05:14:38;7.20;;;4.07;;
76576;SDS011;65441;44.748;37.600;2023-07-13T05:17:07;7.78;;;3.72;;
76576;SDS011;65441;44.748;37.600;2023-07-13T05:19:37;8.98;;;4.22;;
76576;SDS011;65441;44.748;37.600;2023-07-13T05:22:05;8.70;;;3.97;;
76576;SDS011;65441;44.748;37.600;2023-07-13T05:24:34;8.55;;;4.20;;
76576;SDS011;65441;44.748;37.600;2023-07-13T05:27:02;11.63;;;6.47;;
76576;SDS011;65441;44.748;37.600;2023-07-13T05:29:38;7.47;;;4.05;;
76576;SDS011;65441;44.748;37.600;2023-07-13T05:32:06;8.27;;;4.05;;
76576;SDS011;65441;44.748;37.600;2023-07-13T05:34:34;10.88;;;3.67;;
76576;SDS011;65441;44.748;37.600;2023-07-13T05:37:07;7.60;;;3.45;;
76576;SDS011;65441;44.748;37.600;2023-07-13T05:39:35;9.32;;;3.67;;
76576;SDS011;65441;44.748;37.600;2023-07-13T05:42:04;7.53;;;4.00;;
76576;SDS011;65441;44.748;37.600;2023-07-13T05:44:33;8.85;;;3.47;;
76576;SDS011;65441;44.748;37.600;2023-07-13T05:47:01;7.00;;;3.42;;
76576;SDS011;65441;44.748;37.600;2023-07-13T05:49:29;8.27;;;3.90;;
76576;SDS011;65441;44.748;37.600;2023-07-13T05:51:58;7.45;;;3.70;;
76576;SDS011;65441;44.748;37.600;2023-07-13T05:54:27;5.97;;;3.30;;
76576;SDS011;65441;44.748;37.600;2023-07-13T05:56:56;9.18;;;4.00;;
76576;SDS011;65441;44.748;37.600;2023-07-13T05:59:26;9.10;;;5.45;;
76576;SDS011;65441;44.748;37.600;2023-07-13T06:01:55;12.45;;;6.60;;
76576;SDS011;65441;44.748;37.600;2023-07-13T06:04:25;7.35;;;3.72;;
76576;SDS011;65441;44.748;37.600;2023-07-13T06:06:54;9.95;;;5.28;;
76576;SDS011;65441;44.748;37.600;2023-07-13T06:09:22;17.13;;;8.82;;
76576;SDS011;65441;44.748;37.600;2023-07-13T06:11:52;20.17;;;10.45;;
76576;SDS011;65441;44.748;37.600;2023-07-13T06:14:20;9.18;;;4.72;;
76576;SDS011;65441;44.748;37.600;2023-07-13T06:16:49;9.13;;;3.38;;
76576;SDS011;65441;44.748;37.600;2023-07-13T06:19:17;9.55;;;3.92;;
76576;SDS011;65441;44.748;37.600;2023-07-13T06:21:48;6.82;;;3.42;;
76576;SDS011;65441;44.748;37.600;2023-07-13T06:24:17;6.82;;;3.28;;
76576;SDS011;65441;44.748;37.600;2023-07-13T06:26:45;12.30;;;3.70;;
76576;SDS011;65441;44.748;37.600;2023-07-13T06:29:15;8.63;;;3.22;;
76576;SDS011;65441;44.748;37.600;2023-07-13T06:31:43;7.32;;;3.25;;
76576;SDS011;65441;44.748;37.600;2023-07-13T06:34:11;7.18;;;3.47;;
76576;SDS011;65441;44.748;37.600;2023-07-13T06:36:40;7.93;;;3.25;;
76576;SDS011;65441;44.748;37.600;2023-07-13T06:39:08;9.52;;;4.00;;
76576;SDS011;65441;44.748;37.600;2023-07-13T06:41:36;6.32;;;3.33;;
76576;SDS011;65441;44.748;37.600;2023-07-13T06:44:10;6.68;;;3.53;;
76576;SDS011;65441;44.748;37.600;2023-07-13T06:46:39;8.52;;;3.65;;
76576;SDS011;65441;44.748;37.600;2023-07-13T06:49:08;7.57;;;3.22;;
76576;SDS011;65441;44.748;37.600;2023-07-13T06:51:36;7.00;;;3.42;;
76576;SDS011;65441;44.748;37.600;2023-07-13T06:54:05;10.65;;;3.45;;
76576;SDS011;65441;44.748;37.600;2023-07-13T06:56:33;6.97;;;3.20;;
76576;SDS011;65441;44.748;37.600;2023-07-13T06:59:01;7.43;;;3.38;;
76576;SDS011;65441;44.748;37.600;2023-07-13T07:01:29;8.60;;;3.47;;
76576;SDS011;65441;44.748;37.600;2023-07-13T07:03:59;9.57;;;3.50;;
76576;SDS011;65441;44.748;37.600;2023-07-13T07:06:28;5.78;;;3.50;;
76576;SDS011;65441;44.748;37.600;2023-07-13T07:08:56;7.82;;;3.70;;
76576;SDS011;65441;44.748;37.600;2023-07-13T07:11:25;6.97;;;3.10;;
76576;SDS011;65441;44.748;37.600;2023-07-13T07:13:54;8.85;;;3.65;;
76576;SDS011;65441;44.748;37.600;2023-07-13T07:16:24;7.57;;;3.70;;
76576;SDS011;65441;44.748;37.600;2023-07-13T07:18:53;8.20;;;3.50;;
76576;SDS011;65441;44.748;37.600;2023-07-13T07:21:22;10.80;;;3.20;;
76576;SDS011;65441;44.748;37.600;2023-07-13T07:23:51;7.32;;;3.63;;
76576;SDS011;65441;44.748;37.600;2023-07-13T07:26:20;7.25;;;3.47;;
76576;SDS011;65441;44.748;37.600;2023-07-13T07:28:48;8.45;;;3.38;;
76576;SDS011;65441;44.748;37.600;2023-07-13T07:31:16;7.45;;;3.17;;
76576;SDS011;65441;44.748;37.600;2023-07-13T07:33:45;6.93;;;3.45;;
76576;SDS011;65441;44.748;37.600;2023-07-13T07:36:13;8.07;;;2.88;;
76576;SDS011;65441;44.748;37.600;2023-07-13T07:38:43;6.78;;;3.10;;
76576;SDS011;65441;44.748;37.600;2023-07-13T07:41:12;7.13;;;3.40;;
76576;SDS011;65441;44.748;37.600;2023-07-13T07:43:43;12.13;;;3.80;;
76576;SDS011;65441;44.748;37.600;2023-07-13T07:46:12;5.93;;;3.05;;
76576;SDS011;65441;44.748;37.600;2023-07-13T07:48:43;7.38;;;3.25;;
76576;SDS011;65441;44.748;37.600;2023-07-13T07:51:11;7.05;;;3.20;;
76576;SDS011;65441;44.748;37.600;2023-07-13T07:53:39;7.50;;;3.20;;
76576;SDS011;65441;44.748;37.600;2023-07-13T07:56:09;9.07;;;3.22;;
76576;SDS011;65441;44.748;37.600;2023-07-13T07:58:39;8.23;;;3.30;;
76576;SDS011;65441;44.748;37.600;2023-07-13T08:01:07;7.80;;;3.28;;
76576;SDS011;65441;44.748;37.600;2023-07-13T08:03:37;7.82;;;3.85;;
76576;SDS011;65441;44.748;37.600;2023-07-13T08:06:05;5.88;;;2.95;;
76576;SDS011;65441;44.748;37.600;2023-07-13T08:08:34;7.90;;;3.47;;
76576;SDS011;65441;44.748;37.600;2023-07-13T08:11:03;7.07;;;3.13;;
76576;SDS011;65441;44.748;37.600;2023-07-13T08:13:33;6.85;;;3.50;;
76576;SDS011;65441;44.748;37.600;2023-07-13T08:16:03;7.28;;;3.30;;
76576;SDS011;65441;44.748;37.600;2023-07-13T08:18:33;7.53;;;3.30;;
76576;SDS011;65441;44.748;37.600;2023-07-13T08:21:03;5.82;;;3.30;;
76576;SDS011;65441;44.748;37.600;2023-07-13T08:23:32;5.55;;;3.03;;
76576;SDS011;65441;44.748;37.600;2023-07-13T08:26:00;7.28;;;3.17;;
76576;SDS011;65441;44.748;37.600;2023-07-13T08:28:30;6.25;;;3.13;;
76576;SDS011;65441;44.748;37.600;2023-07-13T08:31:02;7.40;;;3.13;;
76576;SDS011;65441;44.748;37.600;2023-07-13T08:33:36;7.22;;;3.22;;
76576;SDS011;65441;44.748;37.600;2023-07-13T08:36:07;6.78;;;3.08;;
76576;SDS011;65441;44.748;37.600;2023-07-13T08:38:35;6.03;;;2.95;;
76576;SDS011;65441;44.748;37.600;2023-07-13T08:41:11;7.90;;;2.97;;
76576;SDS011;65441;44.748;37.600;2023-07-13T08:46:15;10.05;;;3.33;;
76576;SDS011;65441;44.748;37.600;2023-07-13T08:48:46;7.35;;;3.20;;
76576;SDS011;65441;44.748;37.600;2023-07-13T08:51:22;7.68;;;3.47;;
76576;SDS011;65441;44.748;37.600;2023-07-13T08:53:59;8.13;;;2.88;;
76576;SDS011;65441;44.748;37.600;2023-07-13T08:56:30;6.47;;;3.30;;
76576;SDS011;65441;44.748;37.600;2023-07-13T08:59:03;7.15;;;3.42;;
76576;SDS011;65441;44.748;37.600;2023-07-13T09:01:45;9.30;;;3.30;;
76576;SDS011;65441;44.748;37.600;2023-07-13T09:04:26;8.20;;;3.08;;
76576;SDS011;65441;44.748;37.600;2023-07-13T09:07:03;6.80;;;3.40;;
76576;SDS011;65441;44.748;37.600;2023-07-13T09:09:44;5.97;;;3.05;;
76576;SDS011;65441;44.748;37.600;2023-07-13T09:12:22;6.05;;;3.22;;
76576;SDS011;65441;44.748;37.600;2023-07-13T09:14:57;6.65;;;3.00;;
76576;SDS011;65441;44.748;37.600;2023-07-13T09:17:33;8.43;;;3.40;;
76576;SDS011;65441;44.748;37.600;2023-07-13T09:20:10;7.45;;;3.13;;
76576;SDS011;65441;44.748;37.600;2023-07-13T09:22:49;7.78;;;3.40;;
76576;SDS011;65441;44.748;37.600;2023-07-13T09:25:21;6.50;;;3.83;;
76576;SDS011;65441;44.748;37.600;2023-07-13T09:27:55;7.18;;;3.50;;
76576;SDS011;65441;44.748;37.600;2023-07-13T09:30:30;9.50;;;3.47;;
76576;SDS011;65441;44.748;37.600;2023-07-13T09:33:05;5.95;;;3.20;;
76576;SDS011;65441;44.748;37.600;2023-07-13T09:35:34;9.77;;;3.30;;
76576;SDS011;65441;44.748;37.600;2023-07-13T09:38:09;6.65;;;3.30;;
76576;SDS011;65441;44.748;37.600;2023-07-13T09:40:43;9.95;;;3.45;;
76576;SDS011;65441;44.748;37.600;2023-07-13T09:43:17;9.48;;;3.20;;
76576;SDS011;65441;44.748;37.600;2023-07-13T09:45:48;7.30;;;3.28;;
76576;SDS011;65441;44.748;37.600;2023-07-13T09:48:20;5.90;;;3.17;;
76576;SDS011;65441;44.748;37.600;2023-07-13T09:50:54;7.68;;;3.35;;
76576;SDS011;65441;44.748;37.600;2023-07-13T09:53:26;8.52;;;2.90;;
76576;SDS011;65441;44.748;37.600;2023-07-13T09:56:00;6.38;;;3.00;;
76576;SDS011;65441;44.748;37.600;2023-07-13T09:58:29;9.48;;;3.20;;
76576;SDS011;65441;44.748;37.600;2023-07-13T10:01:01;5.78;;;2.67;;
76576;SDS011;65441;44.748;37.600;2023-07-13T10:03:33;9.30;;;3.35;;
76576;SDS011;65441;44.748;37.600;2023-07-13T10:06:11;8.60;;;2.92;;
76576;SDS011;65441;44.748;37.600;2023-07-13T10:08:44;7.60;;;2.85;;
76576;SDS011;65441;44.748;37.600;2023-07-13T10:11:20;9.05;;;2.72;;
76576;SDS011;65441;44.748;37.600;2023-07-13T10:13:51;6.88;;;3.03;;
76576;SDS011;65441;44.748;37.600;2023-07-13T10:16:24;8.07;;;3.17;;
76576;SDS011;65441;44.748;37.600;2023-07-13T10:18:56;6.32;;;2.85;;
76576;SDS011;65441;44.748;37.600;2023-07-13T10:21:30;8.52;;;2.83;;
76576;SDS011;65441;44.748;37.600;2023-07-13T10:24:04;6.07;;;2.70;;
76576;SDS011;65441;44.748;37.600;2023-07-13T10:26:41;6.55;;;2.90;;
76576;SDS011;65441;44.748;37.600;2023-07-13T10:29:15;5.93;;;2.90;;
76576;SDS011;65441;44.748;37.600;2023-07-13T10:31:45;6.72;;;2.95;;
76576;SDS011;65441;44.748;37.600;2023-07-13T10:34:15;5.78;;;2.70;;
76576;SDS011;65441;44.748;37.600;2023-07-13T10:36:44;5.55;;;2.53;;
76576;SDS011;65441;44.748;37.600;2023-07-13T10:39:15;7.05;;;2.60;;
76576;SDS011;65441;44.748;37.600;2023-07-13T10:41:54;5.82;;;2.50;;
76576;SDS011;65441;44.748;37.600;2023-07-13T10:44:26;7.13;;;2.95;;
76576;SDS011;65441;44.748;37.600;2023-07-13T10:46:58;7.25;;;2.80;;
76576;SDS011;65441;44.748;37.600;2023-07-13T10:49:33;7.68;;;2.40;;
76576;SDS011;65441;44.748;37.600;2023-07-13T10:52:20;6.10;;;2.58;;
76576;SDS011;65441;44.748;37.600;2023-07-13T10:58:11;4.63;;;2.05;;
76576;SDS011;65441;44.748;37.600;2023-07-13T11:00:49;8.43;;;2.33;;
76576;SDS011;65441;44.748;37.600;2023-07-13T11:03:32;6.05;;;2.25;;
76576;SDS011;65441;44.748;37.600;2023-07-13T11:06:11;6.82;;;2.90;;
76576;SDS011;65441;44.748;37.600;2023-07-13T11:08:53;7.70;;;2.53;;
76576;SDS011;65441;44.748;37.600;2023-07-13T11:11:34;6.10;;;2.30;;
76576;SDS011;65441;44.748;37.600;2023-07-13T11:16:56;8.98;;;2.55;;
76576;SDS011;65441;44.748;37.600;2023-07-13T11:22:12;7.40;;;2.60;;
76576;SDS011;65441;44.748;37.600;2023-07-13T11:24:50;9.48;;;2.65;;
76576;SDS011;65441;44.748;37.600;2023-07-13T11:27:34;6.45;;;2.80;;
76576;SDS011;65441;44.748;37.600;2023-07-13T11:33:03;7.10;;;2.60;;
76576;SDS011;65441;44.748;37.600;2023-07-13T11:35:51;5.65;;;2.40;;
76576;SDS011;65441;44.748;37.600;2023-07-13T11:38:33;9.05;;;3.10;;
76576;SDS011;65441;44.748;37.600;2023-07-13T11:41:05;7.53;;;3.00;;
76576;SDS011;65441;44.748;37.600;2023-07-13T11:43:43;7.38;;;2.72;;
76576;SDS011;65441;44.748;37.600;2023-07-13T11:46:21;6.10;;;2.42;;
76576;SDS011;65441;44.748;37.600;2023-07-13T11:48:51;7.43;;;2.67;;
76576;SDS011;65441;44.748;37.600;2023-07-13T11:51:21;6.47;;;2.58;;
76576;SDS011;65441;44.748;37.600;2023-07-13T11:56:26;5.53;;;2.83;;
76576;SDS011;65441;44.748;37.600;2023-07-13T11:59:03;7.57;;;2.78;;
76576;SDS011;65441;44.748;37.600;2023-07-13T12:01:33;6.53;;;2.75;;
76576;SDS011;65441;44.748;37.600;2023-07-13T12:04:04;5.97;;;2.03;;
76576;SDS011;65441;44.748;37.600;2023-07-13T12:06:35;7.47;;;2.53;;
76576;SDS011;65441;44.748;37.600;2023-07-13T12:09:11;7.47;;;2.67;;
76576;SDS011;65441;44.748;37.600;2023-07-13T12:11:42;5.47;;;2.30;;
76576;SDS011;65441;44.748;37.600;2023-07-13T12:14:15;6.07;;;2.45;;
76576;SDS011;65441;44.748;37.600;2023-07-13T12:16:47;5.72;;;2.63;;
76576;SDS011;65441;44.748;37.600;2023-07-13T12:22:25;6.32;;;2.47;;
76576;SDS011;65441;44.748;37.600;2023-07-13T12:24:57;5.68;;;2.70;;
76576;SDS011;65441;44.748;37.600;2023-07-13T12:27:27;8.00;;;2.60;;
76576;SDS011;65441;44.748;37.600;2023-07-13T12:29:58;6.60;;;2.60;;
76576;SDS011;65441;44.748;37.600;2023-07-13T12:32:28;7.53;;;2.63;;
76576;SDS011;65441;44.748;37.600;2023-07-13T12:34:57;8.25;;;2.75;;
76576;SDS011;65441;44.748;37.600;2023-07-13T12:37:41;7.75;;;2.50;;
76576;SDS011;65441;44.748;37.600;2023-07-13T12:40:16;6.63;;;2.75;;
76576;SDS011;65441;44.748;37.600;2023-07-13T12:42:48;7.28;;;2.70;;
76576;SDS011;65441;44.748;37.600;2023-07-13T12:45:19;6.60;;;2.58;;
76576;SDS011;65441;44.748;37.600;2023-07-13T12:47:52;6.80;;;2.72;;
76576;SDS011;65441;44.748;37.600;2023-07-13T12:50:22;5.80;;;2.47;;
76576;SDS011;65441;44.748;37.600;2023-07-13T12:52:59;6.88;;;2.63;;
76576;SDS011;65441;44.748;37.600;2023-07-13T12:55:41;5.50;;;2.42;;
76576;SDS011;65441;44.748;37.600;2023-07-13T13:00:50;7.25;;;2.78;;
76576;SDS011;65441;44.748;37.600;2023-07-13T13:03:22;6.82;;;2.67;;
76576;SDS011;65441;44.748;37.600;2023-07-13T13:05:59;5.80;;;2.65;;
76576;SDS011;65441;44.748;37.600;2023-07-13T13:08:32;5.68;;;2.20;;
76576;SDS011;65441;44.748;37.600;2023-07-13T13:11:03;6.03;;;2.60;;
76576;SDS011;65441;44.748;37.600;2023-07-13T13:13:31;6.55;;;2.45;;
76576;SDS011;65441;44.748;37.600;2023-07-13T13:16:02;8.45;;;2.40;;
76576;SDS011;65441;44.748;37.600;2023-07-13T13:18:36;6.80;;;2.70;;
76576;SDS011;65441;44.748;37.600;2023-07-13T13:21:06;7.57;;;2.67;;
76576;SDS011;65441;44.748;37.600;2023-07-13T13:23:37;7.07;;;2.40;;
76576;SDS011;65441;44.748;37.600;2023-07-13T13:26:10;5.82;;;2.55;;
76576;SDS011;65441;44.748;37.600;2023-07-13T13:28:39;7.85;;;2.40;;
76576;SDS011;65441;44.748;37.600;2023-07-13T13:31:10;6.45;;;2.40;;
76576;SDS011;65441;44.748;37.600;2023-07-13T13:33:44;6.68;;;2.40;;
76576;SDS011;65441;44.748;37.600;2023-07-13T13:36:15;6.97;;;2.60;;
76576;SDS011;65441;44.748;37.600;2023-07-13T13:38:45;7.53;;;2.55;;
76576;SDS011;65441;44.748;37.600;2023-07-13T13:41:16;8.85;;;2.67;;
76576;SDS011;65441;44.748;37.600;2023-07-13T13:43:47;6.80;;;2.50;;
76576;SDS011;65441;44.748;37.600;2023-07-13T13:46:16;7.28;;;2.55;;
76576;SDS011;65441;44.748;37.600;2023-07-13T13:48:47;6.43;;;2.40;;
76576;SDS011;65441;44.748;37.600;2023-07-13T13:51:16;7.93;;;2.85;;
76576;SDS011;65441;44.748;37.600;2023-07-13T13:53:48;5.72;;;2.40;;
76576;SDS011;65441;44.748;37.600;2023-07-13T13:56:19;6.35;;;2.50;;
76576;SDS011;65441;44.748;37.600;2023-07-13T13:58:47;6.22;;;2.60;;
76576;SDS011;65441;44.748;37.600;2023-07-13T14:01:16;5.78;;;2.50;;
76576;SDS011;65441;44.748;37.600;2023-07-13T14:03:46;7.30;;;2.38;;
76576;SDS011;65441;44.748;37.600;2023-07-13T14:06:17;7.28;;;2.70;;
76576;SDS011;65441;44.748;37.600;2023-07-13T14:08:46;6.13;;;2.47;;
76576;SDS011;65441;44.748;37.600;2023-07-13T14:11:15;8.10;;;2.25;;
76576;SDS011;65441;44.748;37.600;2023-07-13T14:13:47;7.55;;;2.67;;
76576;SDS011;65441;44.748;37.600;2023-07-13T14:16:17;5.63;;;2.15;;
76576;SDS011;65441;44.748;37.600;2023-07-13T14:18:48;6.15;;;2.13;;
76576;SDS011;65441;44.748;37.600;2023-07-13T14:21:17;5.50;;;2.05;;
76576;SDS011;65441;44.748;37.600;2023-07-13T14:23:46;5.47;;;2.33;;
76576;SDS011;65441;44.748;37.600;2023-07-13T14:26:18;4.90;;;2.28;;
76576;SDS011;65441;44.748;37.600;2023-07-13T14:28:49;5.28;;;2.20;;
76576;SDS011;65441;44.748;37.600;2023-07-13T14:31:18;5.85;;;2.28;;
76576;SDS011;65441;44.748;37.600;2023-07-13T14:33:48;6.30;;;2.60;;
76576;SDS011;65441;44.748;37.600;2023-07-13T14:36:26;7.88;;;2.50;;
76576;SDS011;65441;44.748;37.600;2023-07-13T14:38:57;6.20;;;2.22;;
76576;SDS011;65441;44.748;37.600;2023-07-13T14:41:28;5.55;;;2.25;;
76576;SDS011;65441;44.748;37.600;2023-07-13T14:43:57;6.28;;;2.60;;
76576;SDS011;65441;44.748;37.600;2023-07-13T14:46:28;6.22;;;2.70;;
76576;SDS011;65441;44.748;37.600;2023-07-13T14:49:00;6.85;;;2.50;;
76576;SDS011;65441;44.748;37.600;2023-07-13T14:51:30;7.35;;;2.30;;
76576;SDS011;65441;44.748;37.600;2023-07-13T14:54:01;5.03;;;2.30;;
76576;SDS011;65441;44.748;37.600;2023-07-13T14:56:32;5.28;;;2.45;;
76576;SDS011;65441;44.748;37.600;2023-07-13T14:59:00;6.47;;;2.47;;
76576;SDS011;65441;44.748;37.600;2023-07-13T15:01:36;7.95;;;2.50;;
76576;SDS011;65441;44.748;37.600;2023-07-13T15:04:06;6.32;;;2.65;;
76576;SDS011;65441;44.748;37.600;2023-07-13T15:09:20;6.60;;;2.35;;
76576;SDS011;65441;44.748;37.600;2023-07-13T15:11:51;10.65;;;2.83;;
76576;SDS011;65441;44.748;37.600;2023-07-13T15:14:20;5.28;;;2.72;;
76576;SDS011;65441;44.748;37.600;2023-07-13T15:16:49;5.88;;;2.53;;
76576;SDS011;65441;44.748;37.600;2023-07-13T15:19:19;5.55;;;2.33;;
76576;SDS011;65441;44.748;37.600;2023-07-13T15:21:49;6.95;;;2.78;;